createdAt,value
2022-11-01T00:04:11.347Z,10.54
2022-11-01T00:09:12.909Z,10.56
2022-11-01T00:14:19.797Z,10.54
2022-11-01T00:19:21.325Z,10.59
2022-11-01T00:24:23.054Z,10.77
2022-11-01T00:29:24.668Z,10.97
2022-11-01T00:34:26.272Z,11.02
2022-11-01T00:39:31.358Z,10.99
2022-11-01T00:44:33.090Z,10.78
2022-11-01T00:49:34.671Z,10.72
2022-11-01T00:54:36.253Z,10.68
2022-11-01T00:59:40.919Z,10.61
2022-11-01T01:04:43.332Z,10.87
2022-11-01T01:09:44.868Z,10.73
2022-11-01T01:14:46.547Z,10.59
2022-11-01T01:19:48.095Z,10.64
2022-11-01T01:24:49.739Z,10.59
2022-11-01T01:29:52.100Z,10.75
2022-11-01T01:34:53.958Z,11.00
2022-11-01T01:39:55.625Z,10.94
2022-11-01T01:44:57.181Z,10.79
2022-11-01T01:50:01.287Z,10.79
2022-11-01T01:55:07.384Z,11.00
2022-11-01T02:00:09.601Z,10.99
2022-11-01T02:05:36.300Z,10.97
2022-11-01T02:10:38.451Z,11.07
2022-11-01T02:15:52.635Z,11.16
2022-11-01T02:21:17.693Z,10.89
2022-11-01T02:26:50.012Z,10.67
2022-11-01T02:32:10.318Z,10.56
2022-11-01T02:37:34.703Z,10.75
2022-11-01T02:42:46.457Z,10.69
2022-11-01T02:47:48.005Z,10.61
2022-11-01T02:52:49.735Z,10.35
2022-11-01T02:57:51.447Z,10.33
2022-11-01T03:03:04.437Z,10.48
2022-11-01T03:08:19.299Z,10.27
2022-11-01T03:14:01.067Z,10.21
2022-11-01T03:19:34.158Z,10.63
2022-11-01T03:24:56.622Z,10.57
2022-11-01T03:30:14.118Z,10.59
2022-11-01T03:35:19.511Z,10.55
2022-11-01T03:40:23.208Z,10.48
2022-11-01T03:45:26.712Z,10.53
2022-11-01T03:50:29.221Z,10.70
2022-11-01T03:55:30.804Z,10.77
2022-11-01T04:00:36.376Z,10.67
2022-11-01T04:05:39.634Z,10.59
2022-11-01T04:10:42.064Z,10.69
2022-11-01T04:16:02.073Z,10.58
2022-11-01T04:21:07.926Z,10.53
2022-11-01T04:26:13.101Z,10.44
2022-11-01T04:31:14.704Z,10.26
2022-11-01T04:36:16.343Z,10.32
2022-11-01T04:41:19.434Z,10.31
2022-11-01T04:46:21.540Z,10.29
2022-11-01T04:51:23.179Z,10.33
2022-11-01T04:56:24.947Z,10.26
2022-11-01T05:01:26.985Z,10.18
2022-11-01T05:06:29.619Z,10.05
2022-11-01T05:11:31.165Z,10.11
2022-11-01T05:16:32.695Z,10.00
2022-11-01T05:21:34.298Z,9.92
2022-11-01T05:26:35.871Z,9.87
2022-11-01T05:31:38.072Z,9.81
2022-11-01T05:36:39.754Z,9.76
2022-11-01T05:41:41.440Z,9.77
2022-11-01T05:46:43.093Z,9.72
2022-11-01T05:51:44.615Z,9.74
2022-11-01T05:56:46.211Z,9.84
2022-11-01T06:01:47.926Z,9.73
2022-11-01T06:06:49.592Z,9.74
2022-11-01T06:11:51.278Z,9.77
2022-11-01T06:16:53.095Z,9.82
2022-11-01T06:21:54.590Z,9.80
2022-11-01T06:26:56.172Z,9.83
2022-11-01T06:31:57.735Z,9.71
2022-11-01T06:36:59.994Z,9.71
2022-11-01T06:42:01.572Z,9.74
2022-11-01T06:47:03.343Z,9.98
2022-11-01T06:52:05.382Z,10.19
2022-11-01T06:57:07.172Z,10.18
2022-11-01T07:02:14.309Z,10.16
2022-11-01T07:07:16.606Z,10.22
2022-11-01T07:12:18.549Z,10.41
2022-11-01T07:17:20.290Z,10.49
2022-11-01T07:22:21.922Z,10.54
2022-11-01T07:27:23.514Z,10.56
2022-11-01T07:32:25.136Z,10.74
2022-11-01T07:37:29.548Z,10.74
2022-11-01T07:42:31.133Z,10.99
2022-11-01T07:47:32.778Z,11.17
2022-11-01T07:52:34.385Z,11.36
2022-11-01T07:57:40.505Z,11.32
2022-11-01T08:02:42.115Z,11.51
2022-11-01T08:07:43.680Z,11.72
2022-11-01T08:12:45.262Z,11.93
2022-11-01T08:17:46.938Z,12.05
2022-11-01T08:22:48.551Z,12.30
2022-11-01T08:27:50.260Z,12.18
2022-11-01T08:32:59.029Z,12.41
2022-11-01T08:38:01.357Z,12.55
2022-11-01T08:43:03.335Z,12.87
2022-11-01T08:48:05.838Z,12.76
2022-11-01T08:53:12.410Z,12.68
2022-11-01T08:58:13.934Z,12.85
2022-11-01T09:03:16.067Z,13.00
2022-11-01T09:08:18.407Z,12.98
2022-11-01T09:13:20.590Z,13.12
2022-11-01T09:18:22.366Z,13.50
2022-11-01T09:23:24.002Z,13.65
2022-11-01T09:28:28.823Z,13.82
2022-11-01T09:33:32.259Z,13.86
2022-11-01T09:38:35.549Z,13.92
2022-11-01T09:43:41.081Z,14.10
2022-11-01T09:48:44.227Z,14.37
2022-11-01T09:53:46.577Z,14.31
2022-11-01T09:59:05.759Z,14.14
2022-11-01T10:04:10.194Z,14.18
2022-11-01T10:09:41.121Z,14.60
2022-11-01T10:15:19.914Z,14.58
2022-11-01T10:20:26.559Z,14.79
2022-11-01T10:25:30.596Z,14.80
2022-11-01T10:30:47.736Z,14.79
2022-11-01T10:35:53.607Z,14.99
2022-11-01T10:41:01.530Z,15.06
2022-11-01T10:46:07.387Z,15.22
2022-11-01T10:51:11.318Z,15.24
2022-11-01T10:56:24.560Z,15.45
2022-11-01T11:01:31.862Z,15.19
2022-11-01T11:06:36.176Z,15.37
2022-11-01T11:11:42.189Z,15.57
2022-11-01T11:16:57.224Z,15.56
2022-11-01T11:22:06.484Z,15.61
2022-11-01T11:27:24.060Z,15.64
2022-11-01T11:32:29.020Z,15.87
2022-11-01T11:37:34.737Z,16.11
2022-11-01T11:42:36.362Z,16.04
2022-11-01T11:47:38.379Z,16.27
2022-11-01T11:52:40.693Z,15.89
2022-11-01T11:57:51.977Z,15.90
2022-11-01T12:02:53.845Z,15.93
2022-11-01T12:07:57.000Z,16.18
2022-11-01T12:12:58.723Z,16.21
2022-11-01T12:18:15.978Z,16.28
2022-11-01T12:23:39.494Z,16.61
2022-11-01T12:29:08.050Z,17.18
2022-11-01T12:34:19.036Z,17.44
2022-11-01T12:39:41.763Z,17.67
2022-11-01T12:45:10.619Z,17.70
2022-11-01T12:50:21.782Z,17.75
2022-11-01T12:55:45.349Z,17.79
2022-11-01T13:01:07.395Z,17.94
2022-11-01T13:06:22.771Z,17.91
2022-11-01T13:11:42.781Z,17.82
2022-11-01T13:16:51.548Z,17.75
2022-11-01T13:22:03.650Z,17.64
2022-11-01T13:27:09.801Z,17.75
2022-11-01T13:32:35.820Z,17.77
2022-11-01T13:37:43.751Z,17.73
2022-11-01T13:43:05.135Z,17.61
2022-11-01T13:48:34.763Z,17.51
2022-11-01T13:53:49.576Z,17.34
2022-11-01T13:58:51.344Z,17.63
2022-11-01T14:04:11.305Z,17.57
2022-11-01T14:09:27.857Z,17.60
2022-11-01T14:14:29.394Z,17.39
2022-11-01T14:19:31.112Z,17.30
2022-11-01T14:24:35.514Z,17.23
2022-11-01T14:29:37.455Z,17.03
2022-11-01T14:34:41.604Z,17.03
2022-11-01T14:40:01.016Z,16.72
2022-11-01T14:45:10.748Z,16.61
2022-11-01T14:50:22.448Z,16.71
2022-11-01T14:55:32.051Z,16.90
2022-11-01T15:00:33.795Z,16.75
2022-11-01T15:05:44.030Z,16.64
2022-11-01T15:10:45.720Z,16.44
2022-11-01T15:16:03.818Z,16.26
2022-11-01T15:21:10.568Z,16.01
2022-11-01T15:26:13.167Z,16.00
2022-11-01T15:31:15.013Z,15.83
2022-11-01T15:36:23.402Z,15.49
2022-11-01T15:41:30.871Z,15.29
2022-11-01T15:46:37.440Z,15.14
2022-11-01T15:51:45.571Z,15.01
2022-11-01T15:56:52.885Z,14.91
2022-11-01T16:01:57.578Z,14.94
2022-11-01T16:07:06.617Z,14.77
2022-11-01T16:12:20.792Z,14.58
2022-11-01T16:17:34.955Z,14.45
2022-11-01T16:22:42.561Z,14.06
2022-11-01T16:28:04.536Z,13.65
2022-11-01T16:33:30.834Z,13.74
2022-11-01T16:38:38.561Z,13.63
2022-11-01T16:43:40.225Z,13.27
2022-11-01T16:48:59.763Z,13.12
2022-11-01T16:54:01.448Z,12.80
2022-11-01T16:59:37.769Z,12.44
2022-11-01T17:04:40.790Z,12.37
2022-11-01T17:09:42.476Z,12.33
2022-11-01T17:14:44.831Z,12.21
2022-11-01T17:19:52.910Z,12.17
2022-11-01T17:24:55.845Z,12.02
2022-11-01T17:29:57.485Z,11.82
2022-11-01T17:34:59.107Z,11.65
2022-11-01T17:40:01.196Z,11.45
2022-11-01T17:45:02.888Z,11.31
2022-11-01T17:50:05.085Z,11.19
2022-11-01T17:55:08.763Z,11.06
2022-11-01T18:00:11.405Z,11.06
2022-11-01T18:05:16.798Z,11.07
2022-11-01T18:10:45.252Z,11.23
2022-11-01T18:16:08.036Z,10.95
2022-11-01T18:21:22.097Z,10.78
2022-11-01T18:26:26.059Z,10.58
2022-11-01T18:31:34.124Z,10.43
2022-11-01T18:36:53.619Z,10.34
2022-11-01T18:41:55.264Z,10.24
2022-11-01T18:47:04.667Z,10.21
2022-11-01T18:52:14.279Z,10.42
2022-11-01T18:57:17.472Z,10.63
2022-11-01T19:02:28.117Z,10.59
2022-11-01T19:07:44.604Z,10.15
2022-11-01T19:12:56.203Z,9.79
2022-11-01T19:18:02.819Z,9.66
2022-11-01T19:23:18.752Z,9.65
2022-11-01T19:28:30.731Z,9.73
2022-11-01T19:33:37.472Z,9.86
2022-11-01T19:38:43.390Z,10.18
2022-11-01T19:43:45.086Z,9.98
2022-11-01T19:48:47.810Z,9.73
2022-11-01T19:53:51.424Z,9.48
2022-11-01T19:59:00.618Z,9.33
2022-11-01T20:04:29.743Z,9.42
2022-11-01T20:09:35.855Z,9.46
2022-11-01T20:14:38.001Z,9.48
2022-11-01T20:19:39.858Z,9.59
2022-11-01T20:24:41.419Z,9.44
2022-11-01T20:29:43.041Z,9.14
2022-11-01T20:34:44.605Z,8.88
2022-11-01T20:39:46.249Z,8.82
2022-11-01T20:44:47.879Z,8.89
2022-11-01T20:49:49.596Z,9.10
2022-11-01T20:54:51.613Z,8.92
2022-11-01T20:59:53.433Z,8.75
2022-11-01T21:05:05.736Z,8.68
2022-11-01T21:10:31.800Z,8.63
2022-11-01T21:15:39.057Z,8.53
2022-11-01T21:20:49.133Z,8.63
2022-11-01T21:25:53.486Z,8.64
2022-11-01T21:31:01.193Z,9.02
2022-11-01T21:36:21.366Z,9.31
2022-11-01T21:41:26.902Z,9.09
2022-11-01T21:46:34.834Z,8.82
2022-11-01T21:51:36.422Z,8.54
2022-11-01T21:56:37.941Z,8.56
2022-11-01T22:01:42.791Z,8.71
2022-11-01T22:06:45.632Z,8.62
2022-11-01T22:11:47.388Z,8.42
2022-11-01T22:16:48.921Z,8.38
2022-11-01T22:21:50.455Z,8.47
2022-11-01T22:26:52.079Z,8.61
2022-11-01T22:32:01.083Z,8.87
2022-11-01T22:37:12.498Z,9.06
2022-11-01T22:42:15.517Z,9.17
2022-11-01T22:47:22.643Z,9.13
2022-11-01T22:52:43.286Z,9.08
2022-11-01T22:57:49.275Z,9.12
2022-11-01T23:02:51.156Z,8.94
2022-11-01T23:07:55.863Z,8.51
2022-11-01T23:13:28.337Z,8.38
2022-11-01T23:18:33.135Z,8.33
2022-11-01T23:23:41.823Z,8.43
2022-11-01T23:28:46.391Z,8.72
2022-11-01T23:33:49.263Z,8.39
2022-11-01T23:44:35.936Z,8.48
2022-11-01T23:49:37.544Z,8.31
2022-11-01T23:54:42.934Z,8.03
2022-11-01T23:59:44.494Z,7.69
